createdAt,value
2022-10-23T00:01:17.333Z,68.63
2022-10-23T00:03:46.068Z,68.74
2022-10-23T00:06:15.958Z,68.57
2022-10-23T00:08:44.388Z,67.99
2022-10-23T00:11:15.077Z,68.06
2022-10-23T00:13:43.332Z,68.16
2022-10-23T00:16:11.400Z,67.90
2022-10-23T00:18:41.050Z,67.74
2022-10-23T00:21:11.440Z,67.76
2022-10-23T00:23:40.472Z,67.66
2022-10-23T00:26:11.096Z,67.83
2022-10-23T00:28:39.370Z,67.77
2022-10-23T00:31:07.972Z,68.09
2022-10-23T00:33:36.186Z,68.22
2022-10-23T00:36:07.753Z,67.95
2022-10-23T00:38:36.067Z,67.97
2022-10-23T00:41:04.853Z,67.92
2022-10-23T00:43:33.294Z,67.52
2022-10-23T00:46:01.264Z,67.76
2022-10-23T00:48:30.090Z,67.51
2022-10-23T00:50:59.287Z,67.64
2022-10-23T00:53:28.897Z,67.70
2022-10-23T00:55:57.747Z,67.68
2022-10-23T00:58:25.693Z,67.63
2022-10-23T01:00:55.961Z,67.87
2022-10-23T01:03:27.181Z,67.28
2022-10-23T01:06:02.286Z,67.56
2022-10-23T01:08:36.851Z,67.72
2022-10-23T01:11:11.709Z,67.89
2022-10-23T01:13:45.618Z,68.55
2022-10-23T01:16:19.805Z,69.07
2022-10-23T01:18:54.817Z,69.28
2022-10-23T01:21:30.540Z,69.64
2022-10-23T01:24:11.289Z,69.81
2022-10-23T01:27:01.691Z,69.87
2022-10-23T01:29:38.587Z,70.25
2022-10-23T01:32:13.334Z,70.51
2022-10-23T01:34:48.027Z,70.56
2022-10-23T01:37:24.473Z,70.45
2022-10-23T01:39:56.596Z,70.38
2022-10-23T01:42:30.897Z,70.08
2022-10-23T01:45:04.290Z,69.84
2022-10-23T01:47:42.890Z,70.20
2022-10-23T01:50:15.646Z,70.34
2022-10-23T01:52:46.629Z,70.13
2022-10-23T01:55:15.507Z,69.59
2022-10-23T01:57:46.619Z,69.81
2022-10-23T02:00:21.381Z,69.69
2022-10-23T02:02:53.734Z,69.70
2022-10-23T02:05:28.054Z,69.37
2022-10-23T02:07:58.153Z,69.11
2022-10-23T02:10:42.647Z,69.19
2022-10-23T02:13:17.548Z,69.14
2022-10-23T02:15:50.031Z,68.79
2022-10-23T02:18:32.763Z,68.69
2022-10-23T02:21:10.348Z,68.74
2022-10-23T02:23:42.342Z,68.76
2022-10-23T02:26:16.811Z,68.68
2022-10-23T02:28:53.992Z,68.41
2022-10-23T02:31:25.176Z,68.43
2022-10-23T02:33:54.916Z,68.35
2022-10-23T02:36:24.356Z,68.39
2022-10-23T02:38:52.539Z,68.44
2022-10-23T02:41:31.119Z,68.36
2022-10-23T02:44:08.706Z,68.46
2022-10-23T02:46:48.349Z,68.01
2022-10-23T02:49:24.436Z,67.79
2022-10-23T02:52:02.052Z,67.91
2022-10-23T02:54:45.084Z,67.85
2022-10-23T02:57:22.912Z,67.87
2022-10-23T03:00:01.397Z,67.77
2022-10-23T03:02:36.807Z,67.32
2022-10-23T03:05:07.404Z,67.64
2022-10-23T03:07:36.102Z,67.67
2022-10-23T03:10:08.588Z,67.87
2022-10-23T03:12:37.516Z,67.83
2022-10-23T03:15:08.353Z,67.35
2022-10-23T03:17:37.655Z,67.47
2022-10-23T03:20:06.076Z,67.22
2022-10-23T03:22:33.967Z,66.97
2022-10-23T03:25:02.200Z,67.14
2022-10-23T03:27:32.462Z,66.78
2022-10-23T03:30:05.712Z,66.93
2022-10-23T03:32:35.161Z,66.47
2022-10-23T03:35:04.679Z,66.52
2022-10-23T03:37:33.532Z,66.99
2022-10-23T03:40:02.658Z,67.05
2022-10-23T03:42:33.880Z,67.22
2022-10-23T03:45:01.820Z,67.23
2022-10-23T03:47:30.699Z,67.52
2022-10-23T03:49:59.377Z,67.60
2022-10-23T03:52:28.789Z,67.48
2022-10-23T03:54:56.835Z,67.35
2022-10-23T03:57:25.357Z,67.34
2022-10-23T03:59:53.831Z,67.21
2022-10-23T04:02:21.919Z,67.34
2022-10-23T04:04:49.841Z,67.27
2022-10-23T04:07:17.771Z,67.29
2022-10-23T04:09:48.545Z,67.17
2022-10-23T04:12:18.279Z,67.15
2022-10-23T04:14:46.644Z,67.03
2022-10-23T04:17:14.704Z,66.68
2022-10-23T04:19:43.841Z,66.89
2022-10-23T04:22:11.910Z,66.99
2022-10-23T04:24:45.280Z,66.78
2022-10-23T04:27:18.913Z,67.09
2022-10-23T04:29:46.846Z,67.05
2022-10-23T04:32:14.849Z,66.92
2022-10-23T04:34:45.170Z,66.82
2022-10-23T04:37:13.852Z,66.88
2022-10-23T04:39:41.804Z,67.21
2022-10-23T04:42:14.190Z,67.01
2022-10-23T04:44:43.454Z,66.94
2022-10-23T04:47:12.822Z,67.04
2022-10-23T04:49:53.050Z,66.93
2022-10-23T04:52:23.764Z,66.87
2022-10-23T04:55:27.436Z,66.82
2022-10-23T04:58:18.508Z,66.58
2022-10-23T05:00:48.544Z,67.14
2022-10-23T05:03:23.830Z,67.43
2022-10-23T05:05:54.099Z,67.59
2022-10-23T05:08:31.571Z,67.58
2022-10-23T05:11:18.154Z,67.66
2022-10-23T05:13:49.073Z,67.66
2022-10-23T05:16:31.527Z,67.66
2022-10-23T05:19:00.952Z,67.66
2022-10-23T05:21:33.345Z,67.61
2022-10-23T05:24:02.148Z,67.96
2022-10-23T05:26:32.112Z,68.08
2022-10-23T05:29:05.550Z,68.17
2022-10-23T05:31:36.656Z,68.22
2022-10-23T05:34:13.456Z,68.39
2022-10-23T05:36:44.706Z,68.09
2022-10-23T05:39:13.220Z,68.06
2022-10-23T05:41:41.354Z,67.92
2022-10-23T05:44:09.385Z,67.95
2022-10-23T05:46:57.601Z,67.81
2022-10-23T05:49:45.814Z,68.02
2022-10-23T05:52:22.437Z,68.20
2022-10-23T05:55:09.832Z,68.34
2022-10-23T05:57:56.499Z,68.21
2022-10-23T06:00:44.399Z,68.40
2022-10-23T06:03:34.085Z,68.44
2022-10-23T06:06:02.726Z,68.38
2022-10-23T06:08:41.628Z,68.56
2022-10-23T06:11:11.762Z,68.54
2022-10-23T06:13:40.352Z,68.34
2022-10-23T06:16:11.943Z,68.32
2022-10-23T06:18:42.086Z,68.12
2022-10-23T06:21:15.772Z,68.40
2022-10-23T06:23:47.874Z,68.24
2022-10-23T06:26:28.717Z,68.00
2022-10-23T06:29:01.532Z,68.29
2022-10-23T06:31:29.909Z,68.30
2022-10-23T06:34:01.153Z,68.14
2022-10-23T06:36:30.917Z,68.16
2022-10-23T06:39:10.288Z,68.31
2022-10-23T06:42:05.046Z,68.39
2022-10-23T06:45:11.700Z,68.80
2022-10-23T06:48:11.517Z,69.11
2022-10-23T06:51:00.657Z,69.19
2022-10-23T06:53:37.714Z,69.38
2022-10-23T06:56:13.606Z,69.68
2022-10-23T06:58:41.958Z,69.47
2022-10-23T07:01:16.938Z,69.66
2022-10-23T07:03:46.388Z,69.80
2022-10-23T07:06:16.517Z,69.75
2022-10-23T07:08:44.851Z,69.93
2022-10-23T07:11:36.009Z,69.96
2022-10-23T07:14:04.174Z,69.48
2022-10-23T07:16:32.677Z,69.86
2022-10-23T07:19:01.902Z,70.07
2022-10-23T07:21:32.850Z,70.12
2022-10-23T07:24:22.054Z,69.83
2022-10-23T07:26:52.437Z,69.91
2022-10-23T07:29:20.927Z,70.07
2022-10-23T07:31:49.769Z,70.23
2022-10-23T07:34:37.828Z,70.28
2022-10-23T07:37:20.517Z,70.29
2022-10-23T07:39:48.496Z,70.00
2022-10-23T07:42:16.492Z,69.95
2022-10-23T07:44:44.799Z,69.92
2022-10-23T07:47:13.326Z,69.53
2022-10-23T07:49:45.088Z,69.40
2022-10-23T07:52:13.482Z,69.43
2022-10-23T07:55:02.994Z,69.50
2022-10-23T07:57:33.475Z,69.57
2022-10-23T08:00:13.515Z,69.52
2022-10-23T08:02:53.374Z,69.68
2022-10-23T08:05:21.669Z,70.08
2022-10-23T08:07:56.013Z,70.14
2022-10-23T08:10:25.422Z,70.61
2022-10-23T08:12:53.650Z,70.42
2022-10-23T08:15:29.915Z,70.45
2022-10-23T08:18:04.479Z,70.45
2022-10-23T08:20:47.250Z,70.56
2022-10-23T08:23:18.391Z,70.41
2022-10-23T08:25:48.242Z,70.51
2022-10-23T08:28:18.299Z,70.64
2022-10-23T08:30:55.229Z,70.80
2022-10-23T08:33:23.397Z,70.86
2022-10-23T08:35:51.894Z,70.68
2022-10-23T08:38:29.315Z,70.94
2022-10-23T08:41:01.506Z,70.97
2022-10-23T08:43:57.745Z,71.03
2022-10-23T08:46:38.975Z,71.29
2022-10-23T08:49:29.505Z,71.23
2022-10-23T08:52:10.459Z,71.11
2022-10-23T08:54:50.771Z,71.52
2022-10-23T08:57:23.296Z,71.58
2022-10-23T09:00:01.163Z,71.64
2022-10-23T09:02:34.810Z,71.38
2022-10-23T09:05:02.821Z,71.49
2022-10-23T09:07:41.554Z,71.55
2022-10-23T09:10:32.347Z,71.54
2022-10-23T09:13:12.269Z,71.60
2022-10-23T09:15:43.591Z,71.64
2022-10-23T09:18:15.282Z,71.42
2022-10-23T09:20:46.153Z,71.38
2022-10-23T09:23:17.904Z,71.69
2022-10-23T09:25:47.768Z,71.47
2022-10-23T09:28:22.621Z,71.61
2022-10-23T09:30:52.026Z,71.76
2022-10-23T09:33:22.305Z,71.44
2022-10-23T09:35:56.387Z,71.63
2022-10-23T09:38:29.641Z,71.33
2022-10-23T09:41:00.017Z,71.50
2022-10-23T09:43:29.622Z,71.38
2022-10-23T09:46:05.094Z,71.11
2022-10-23T09:48:35.362Z,71.68
2022-10-23T09:51:04.803Z,71.83
2022-10-23T09:53:36.707Z,71.61
2022-10-23T09:56:11.837Z,71.69
2022-10-23T09:58:53.944Z,71.86
2022-10-23T10:01:26.091Z,72.03
2022-10-23T10:03:57.918Z,71.89
2022-10-23T10:06:30.941Z,71.79
2022-10-23T10:09:01.964Z,71.70
2022-10-23T10:11:38.412Z,71.69
2022-10-23T10:14:44.815Z,72.21
2022-10-23T10:17:21.533Z,71.91
2022-10-23T10:20:06.958Z,72.00
2022-10-23T10:22:41.693Z,72.18
2022-10-23T10:25:14.701Z,72.54
2022-10-23T10:27:52.826Z,72.57
2022-10-23T10:30:24.323Z,72.33
2022-10-23T10:32:59.985Z,72.26
2022-10-23T10:35:38.418Z,72.27
2022-10-23T10:38:38.195Z,72.10
2022-10-23T10:41:28.344Z,72.52
2022-10-23T10:44:11.755Z,72.14
2022-10-23T10:46:47.870Z,72.22
2022-10-23T10:49:21.498Z,71.83
2022-10-23T10:52:21.774Z,71.46
2022-10-23T10:54:59.909Z,71.46
2022-10-23T10:57:34.883Z,70.98
2022-10-23T11:00:06.493Z,70.75
2022-10-23T11:02:42.425Z,70.75
2022-10-23T11:05:30.901Z,71.29
2022-10-23T11:08:05.059Z,70.70
2022-10-23T11:10:34.580Z,70.77
2022-10-23T11:13:03.576Z,70.75
2022-10-23T11:15:43.988Z,70.97
2022-10-23T11:18:19.913Z,70.57
2022-10-23T11:21:00.586Z,70.58
2022-10-23T11:24:01.070Z,70.94
2022-10-23T11:26:41.260Z,71.10
2022-10-23T11:29:43.853Z,71.10
2022-10-23T11:32:31.553Z,70.98
2022-10-23T11:35:20.993Z,70.94
2022-10-23T11:38:00.109Z,70.76
2022-10-23T11:40:28.902Z,70.96
2022-10-23T11:42:57.070Z,71.30
2022-10-23T11:45:33.978Z,71.15
2022-10-23T11:48:04.470Z,70.79
2022-10-23T11:50:50.671Z,71.02
2022-10-23T11:53:27.574Z,70.90
2022-10-23T11:56:01.703Z,70.84
2022-10-23T11:58:41.961Z,70.96
2022-10-23T12:01:25.540Z,71.07
2022-10-23T12:03:57.946Z,71.44
2022-10-23T12:06:33.023Z,71.48
2022-10-23T12:09:05.714Z,71.12
2022-10-23T12:11:45.810Z,71.20
2022-10-23T12:14:31.943Z,71.27
2022-10-23T12:17:01.037Z,71.31
2022-10-23T12:19:31.233Z,70.81
2022-10-23T12:22:02.949Z,71.02
2022-10-23T12:24:49.157Z,71.03
2022-10-23T12:27:31.214Z,71.15
2022-10-23T12:30:23.560Z,70.71
2022-10-23T12:33:13.780Z,71.13
2022-10-23T12:36:03.989Z,71.15
2022-10-23T12:38:35.698Z,71.09
2022-10-23T12:41:13.856Z,71.36
2022-10-23T12:43:45.396Z,70.60
2022-10-23T12:46:37.948Z,70.66
2022-10-23T12:49:15.899Z,70.74
2022-10-23T12:51:44.170Z,70.59
2022-10-23T12:54:19.174Z,71.47
2022-10-23T12:56:48.494Z,70.81
2022-10-23T12:59:19.577Z,70.59
2022-10-23T13:01:52.389Z,70.55
2022-10-23T13:04:28.295Z,70.98
2022-10-23T13:06:57.686Z,71.16
2022-10-23T13:09:32.200Z,70.51
2022-10-23T13:12:22.350Z,70.48
2022-10-23T13:15:00.182Z,71.07
2022-10-23T13:17:40.246Z,70.71
2022-10-23T13:20:22.935Z,70.98
2022-10-23T13:22:59.268Z,70.55
2022-10-23T13:25:32.878Z,70.62
2022-10-23T13:28:16.007Z,70.29
2022-10-23T13:30:46.364Z,70.39
2022-10-23T13:33:24.046Z,70.60
2022-10-23T13:35:59.320Z,70.40
2022-10-23T13:38:32.799Z,69.76
2022-10-23T13:41:03.057Z,69.58
2022-10-23T13:43:32.702Z,69.42
2022-10-23T13:46:01.619Z,69.49
2022-10-23T13:48:30.117Z,69.79
2022-10-23T13:51:07.976Z,69.82
2022-10-23T13:53:35.900Z,69.08
2022-10-23T13:56:05.399Z,69.31
2022-10-23T13:58:33.366Z,69.43
2022-10-23T14:01:01.914Z,69.40
2022-10-23T14:03:29.937Z,69.85
2022-10-23T14:05:58.018Z,69.64
2022-10-23T14:08:25.900Z,69.54
2022-10-23T14:10:54.295Z,69.87
2022-10-23T14:13:23.842Z,69.91
2022-10-23T14:15:54.600Z,69.61
2022-10-23T14:18:23.073Z,69.55
2022-10-23T14:20:51.430Z,69.67
2022-10-23T14:23:19.954Z,69.32
2022-10-23T14:25:47.972Z,69.92
2022-10-23T14:28:16.132Z,69.82
2022-10-23T14:30:45.801Z,69.60
2022-10-23T14:33:15.197Z,69.26
2022-10-23T14:35:43.535Z,69.78
2022-10-23T14:38:11.698Z,70.25
2022-10-23T14:40:40.463Z,70.14
2022-10-23T14:43:08.342Z,70.29
2022-10-23T14:45:36.452Z,70.28
2022-10-23T14:48:06.499Z,69.92
2022-10-23T14:50:43.182Z,69.99
2022-10-23T14:53:11.172Z,69.91
2022-10-23T14:55:39.353Z,69.80
2022-10-23T14:58:07.708Z,69.96
2022-10-23T15:00:35.658Z,69.85
2022-10-23T15:03:06.898Z,69.87
2022-10-23T15:05:35.721Z,69.77
2022-10-23T15:08:03.856Z,70.11
2022-10-23T15:10:32.242Z,69.95
2022-10-23T15:13:00.240Z,70.04
2022-10-23T15:15:28.417Z,69.56
2022-10-23T15:17:56.506Z,69.69
2022-10-23T15:20:25.870Z,69.42
2022-10-23T15:22:53.966Z,69.70
2022-10-23T15:25:21.889Z,69.52
2022-10-23T15:27:50.014Z,69.57
2022-10-23T15:30:18.867Z,69.92
2022-10-23T15:32:46.734Z,69.40
2022-10-23T15:35:14.704Z,69.47
2022-10-23T15:37:44.908Z,69.14
2022-10-23T15:40:13.879Z,69.27
2022-10-23T15:42:42.292Z,69.66
2022-10-23T15:45:14.031Z,69.44
2022-10-23T15:47:42.289Z,69.22
2022-10-23T15:50:10.868Z,69.53
2022-10-23T15:52:38.918Z,69.29
2022-10-23T15:55:11.614Z,69.58
2022-10-23T15:57:39.713Z,69.17
2022-10-23T16:00:10.526Z,69.64
2022-10-23T16:02:38.554Z,69.50
2022-10-23T16:05:07.420Z,69.96
2022-10-23T16:07:35.606Z,70.04
2022-10-23T16:10:04.927Z,69.24
2022-10-23T16:12:34.422Z,69.47
2022-10-23T16:15:02.458Z,70.11
2022-10-23T16:17:30.809Z,70.64
2022-10-23T16:19:58.703Z,70.31
2022-10-23T16:22:27.113Z,70.37
2022-10-23T16:24:55.420Z,70.73
2022-10-23T16:27:23.399Z,70.54
2022-10-23T16:29:55.104Z,70.27
2022-10-23T16:32:23.034Z,70.46
2022-10-23T16:34:51.189Z,70.63
2022-10-23T16:37:21.398Z,70.84
2022-10-23T16:39:55.572Z,70.98
2022-10-23T16:43:01.902Z,70.94
2022-10-23T16:45:42.069Z,71.23
2022-10-23T16:48:10.052Z,71.46
2022-10-23T16:53:07.578Z,71.75
2022-10-23T16:55:35.741Z,71.69
2022-10-23T16:58:04.261Z,71.04
2022-10-23T17:00:35.239Z,71.55
2022-10-23T17:03:06.116Z,71.71
2022-10-23T17:05:35.417Z,71.07
2022-10-23T17:08:04.212Z,71.14
2022-10-23T17:10:32.653Z,71.62
2022-10-23T17:13:00.637Z,71.20
2022-10-23T17:15:28.810Z,71.01
2022-10-23T17:17:58.174Z,71.50
2022-10-23T17:20:27.472Z,71.80
2022-10-23T17:22:55.486Z,71.82
2022-10-23T17:25:23.509Z,71.92
2022-10-23T17:27:51.590Z,71.59
2022-10-23T17:30:19.504Z,71.76
2022-10-23T17:32:47.855Z,71.39
2022-10-23T17:35:16.216Z,72.01
2022-10-23T17:37:45.678Z,72.10
2022-10-23T17:40:14.122Z,71.84
2022-10-23T17:42:42.446Z,71.57
2022-10-23T17:45:11.481Z,71.15
2022-10-23T17:47:41.188Z,71.19
2022-10-23T17:50:12.244Z,70.66
2022-10-23T17:52:40.349Z,70.80
2022-10-23T17:55:10.644Z,70.40
2022-10-23T17:57:39.079Z,71.34
2022-10-23T18:00:07.869Z,70.96
2022-10-23T18:02:40.951Z,70.96
2022-10-23T18:05:09.457Z,70.71
2022-10-23T18:07:37.524Z,70.92
2022-10-23T18:10:06.606Z,71.28
2022-10-23T18:12:37.306Z,71.29
2022-10-23T18:15:06.980Z,71.48
2022-10-23T18:17:35.778Z,71.22
2022-10-23T18:20:04.626Z,71.85
2022-10-23T18:22:33.493Z,71.77
2022-10-23T18:25:01.990Z,72.17
2022-10-23T18:27:29.932Z,71.64
2022-10-23T18:29:59.894Z,72.00
2022-10-23T18:32:29.792Z,71.15
2022-10-23T18:34:57.863Z,71.34
2022-10-23T18:37:28.873Z,71.87
2022-10-23T18:39:59.876Z,71.45
2022-10-23T18:42:27.854Z,71.78
2022-10-23T18:44:55.833Z,71.38
2022-10-23T18:47:25.236Z,71.69
2022-10-23T18:49:53.199Z,71.46
2022-10-23T18:52:21.232Z,71.73
2022-10-23T18:54:49.525Z,71.77
2022-10-23T18:57:17.477Z,71.79
2022-10-23T18:59:45.422Z,71.62
2022-10-23T19:02:13.525Z,71.53
2022-10-23T19:04:43.126Z,71.81
2022-10-23T19:07:11.028Z,72.15
2022-10-23T19:09:40.213Z,71.82
2022-10-23T19:12:08.431Z,71.89
2022-10-23T19:14:36.573Z,71.91
2022-10-23T19:17:09.217Z,72.46
2022-10-23T19:19:42.472Z,71.93
2022-10-23T19:22:13.304Z,72.19
2022-10-23T19:24:45.345Z,71.98
2022-10-23T19:27:13.692Z,72.14
2022-10-23T19:29:46.125Z,72.20
2022-10-23T19:32:14.757Z,72.23
2022-10-23T19:34:42.829Z,72.19
2022-10-23T19:39:40.592Z,72.15
2022-10-23T19:42:09.006Z,72.54
2022-10-23T19:44:36.961Z,72.60
2022-10-23T19:47:05.451Z,72.96
2022-10-23T19:49:33.374Z,72.87
2022-10-23T19:52:01.407Z,72.21
2022-10-23T19:54:30.709Z,72.30
2022-10-23T19:56:58.706Z,72.63
2022-10-23T19:59:26.618Z,72.29
2022-10-23T20:01:54.653Z,72.42
2022-10-23T20:04:22.846Z,72.83
2022-10-23T20:06:50.784Z,72.40
2022-10-23T20:09:18.700Z,72.17
2022-10-23T20:11:49.268Z,72.33
2022-10-23T20:14:18.672Z,72.17
2022-10-23T20:16:51.131Z,72.54
2022-10-23T20:19:23.334Z,72.62
2022-10-23T20:21:51.469Z,72.14
2022-10-23T20:24:21.408Z,72.22
2022-10-23T20:26:52.523Z,72.15
2022-10-23T20:29:21.239Z,71.43
2022-10-23T20:31:49.692Z,71.82
2022-10-23T20:34:18.994Z,71.14
2022-10-23T20:36:49.272Z,72.08
2022-10-23T20:39:19.669Z,72.19
2022-10-23T20:41:48.583Z,72.47
2022-10-23T20:44:19.883Z,72.02
2022-10-23T20:46:48.711Z,72.29
2022-10-23T20:49:17.794Z,72.18
2022-10-23T20:51:46.414Z,72.06
2022-10-23T20:54:14.308Z,71.87
2022-10-23T20:56:42.441Z,71.75
2022-10-23T20:59:13.251Z,71.61
2022-10-23T21:01:44.745Z,71.73
2022-10-23T21:04:14.490Z,72.52
2022-10-23T21:06:57.719Z,73.23
2022-10-23T21:09:31.720Z,73.95
2022-10-23T21:11:59.809Z,74.06
2022-10-23T21:14:28.671Z,74.34
2022-10-23T21:16:58.664Z,74.47
2022-10-23T21:19:26.657Z,74.76
2022-10-23T21:21:55.134Z,74.21
2022-10-23T21:24:24.020Z,74.16
2022-10-23T21:26:51.973Z,74.35
2022-10-23T21:29:20.580Z,74.24
2022-10-23T21:31:53.622Z,74.35
2022-10-23T21:34:23.256Z,73.66
2022-10-23T21:37:11.826Z,73.77
2022-10-23T21:39:39.226Z,73.76
2022-10-23T21:42:07.856Z,73.09
2022-10-23T21:44:36.382Z,73.68
2022-10-23T21:47:05.843Z,73.85
2022-10-23T21:49:35.298Z,74.09
2022-10-23T21:52:03.314Z,74.03
2022-10-23T21:54:31.697Z,73.54
2022-10-23T21:56:59.852Z,73.10
2022-10-23T21:59:31.507Z,73.48
2022-10-23T22:02:01.326Z,72.98
2022-10-23T22:04:30.168Z,73.41
2022-10-23T22:06:59.637Z,73.33
2022-10-23T22:09:30.806Z,73.32
2022-10-23T22:12:00.787Z,73.31
2022-10-23T22:14:29.221Z,73.02
2022-10-23T22:16:57.481Z,72.82
2022-10-23T22:19:25.614Z,72.55
2022-10-23T22:21:53.500Z,73.73
2022-10-23T22:24:25.716Z,73.31
2022-10-23T22:26:56.545Z,73.33
2022-10-23T22:29:27.726Z,73.26
2022-10-23T22:31:56.401Z,73.67
2022-10-23T22:34:48.410Z,73.90
2022-10-23T22:37:14.364Z,73.41
2022-10-23T22:39:43.846Z,73.74
2022-10-23T22:42:11.875Z,73.88
2022-10-23T22:44:40.002Z,73.46
2022-10-23T22:47:08.265Z,73.38
2022-10-23T22:49:36.733Z,73.74
2022-10-23T22:52:04.855Z,73.33
2022-10-23T22:54:33.270Z,73.56
2022-10-23T22:57:02.817Z,72.58
2022-10-23T22:59:31.252Z,73.00
2022-10-23T23:01:59.468Z,72.77
2022-10-23T23:04:43.326Z,73.12
2022-10-23T23:07:12.863Z,72.29
2022-10-23T23:09:42.716Z,72.43
2022-10-23T23:12:14.304Z,72.23
2022-10-23T23:14:42.477Z,71.81
2022-10-23T23:17:11.186Z,71.67
2022-10-23T23:19:40.014Z,72.10
2022-10-23T23:22:08.477Z,72.09
2022-10-23T23:24:36.684Z,71.56
2022-10-23T23:27:05.010Z,71.38
2022-10-23T23:29:34.359Z,71.36
2022-10-23T23:32:02.342Z,71.15
2022-10-23T23:34:30.426Z,71.14
2022-10-23T23:36:58.679Z,70.28
2022-10-23T23:39:28.638Z,70.17
2022-10-23T23:41:56.774Z,70.17
2022-10-23T23:44:25.058Z,71.07
2022-10-23T23:46:54.385Z,71.19
2022-10-23T23:49:22.492Z,70.66
2022-10-23T23:51:50.524Z,70.98
2022-10-23T23:54:18.895Z,70.64
2022-10-23T23:56:46.753Z,70.28
2022-10-23T23:59:14.675Z,70.52
